createdAt,value
2018-03-25T00:00:28.324Z,21.62
2018-03-25T00:02:55.796Z,18.23
2018-03-25T00:05:24.155Z,22.20
2018-03-25T00:07:51.835Z,19.02
2018-03-25T00:10:19.375Z,21.75
2018-03-25T00:12:46.839Z,21.40
2018-03-25T00:15:14.303Z,21.65
2018-03-25T00:17:41.871Z,21.67
2018-03-25T00:20:10.108Z,22.70
2018-03-25T00:22:37.564Z,18.60
2018-03-25T00:25:05.024Z,17.98
2018-03-25T00:27:32.812Z,16.87
2018-03-25T00:30:00.575Z,16.67
2018-03-25T00:32:28.036Z,17.17
2018-03-25T00:34:55.795Z,17.30
2018-03-25T00:37:23.719Z,20.67
2018-03-25T00:39:51.327Z,20.90
2018-03-25T00:42:18.787Z,18.35
2018-03-25T00:44:46.468Z,18.95
2018-03-25T00:47:14.011Z,17.60
2018-03-25T00:49:41.775Z,17.42
2018-03-25T00:52:09.535Z,15.95
2018-03-25T00:54:37.300Z,15.13
2018-03-25T00:57:05.069Z,15.80
2018-03-25T00:59:32.532Z,13.30
2018-03-25T01:02:00.292Z,14.00
2018-03-25T01:04:27.751Z,13.20
2018-03-25T01:06:55.218Z,12.50
2018-03-25T01:09:22.675Z,14.38
2018-03-25T01:11:50.339Z,15.50
2018-03-25T01:14:17.817Z,16.42
2018-03-25T01:16:45.272Z,15.32
2018-03-25T01:19:12.806Z,16.40
2018-03-25T01:21:40.483Z,15.50
2018-03-25T01:24:07.974Z,14.63
2018-03-25T01:26:41.212Z,17.45
2018-03-25T01:29:08.781Z,13.02
2018-03-25T01:31:36.248Z,15.50
2018-03-25T01:34:04.000Z,14.38
2018-03-25T01:36:31.689Z,17.35
2018-03-25T01:38:59.145Z,17.00
2018-03-25T01:41:27.372Z,16.50
2018-03-25T01:43:55.060Z,16.50
2018-03-25T01:46:22.796Z,15.65
2018-03-25T01:48:50.268Z,17.50
2018-03-25T01:51:17.726Z,18.12
2018-03-25T01:53:45.512Z,17.08
2018-03-25T01:56:12.969Z,17.87
2018-03-25T01:58:40.423Z,17.95
2018-03-25T02:01:08.108Z,19.75
2018-03-25T02:03:35.567Z,15.73
2018-03-25T02:06:03.032Z,17.52
2018-03-25T02:08:30.720Z,17.42
2018-03-25T02:10:58.244Z,18.30
2018-03-25T02:13:25.700Z,18.65
2018-03-25T02:15:53.168Z,19.12
2018-03-25T02:18:20.624Z,18.95
2018-03-25T02:20:48.168Z,16.73
2018-03-25T02:23:15.632Z,16.95
2018-03-25T02:25:43.256Z,16.02
2018-03-25T02:28:10.849Z,16.00
2018-03-25T02:30:38.612Z,16.92
2018-03-25T02:33:06.380Z,16.17
2018-03-25T02:35:34.144Z,17.25
2018-03-25T02:38:01.820Z,16.50
2018-03-25T02:40:29.297Z,16.12
2018-03-25T02:42:56.752Z,17.60
2018-03-25T02:45:24.208Z,16.37
2018-03-25T02:47:51.676Z,15.35
2018-03-25T02:50:19.190Z,17.10
2018-03-25T02:52:46.652Z,15.95
2018-03-25T02:55:14.119Z,16.20
2018-03-25T02:57:41.796Z,15.48
2018-03-25T03:00:09.253Z,16.77
2018-03-25T03:02:36.810Z,16.10
2018-03-25T03:05:04.245Z,18.20
2018-03-25T03:07:32.016Z,17.70
2018-03-25T03:09:59.480Z,16.48
2018-03-25T03:12:26.953Z,17.58
2018-03-25T03:14:54.416Z,15.20
2018-03-25T03:17:22.032Z,16.73
2018-03-25T03:19:49.496Z,15.90
2018-03-25T03:22:17.076Z,15.18
2018-03-25T03:24:44.839Z,16.55
2018-03-25T03:27:12.597Z,17.10
2018-03-25T03:29:40.056Z,17.80
2018-03-25T03:32:07.816Z,16.40
2018-03-25T03:34:35.285Z,17.77
2018-03-25T03:37:03.040Z,16.23
2018-03-25T03:39:30.507Z,15.95
2018-03-25T03:41:58.005Z,15.65
2018-03-25T03:44:25.663Z,16.17
2018-03-25T03:46:53.116Z,15.07
2018-03-25T03:49:20.796Z,16.05
2018-03-25T03:51:48.404Z,18.60
2018-03-25T03:54:16.176Z,16.65
2018-03-25T03:56:43.935Z,16.75
2018-03-25T03:59:11.500Z,15.65
2018-03-25T04:01:38.968Z,16.98
2018-03-25T04:04:07.232Z,13.62
2018-03-25T04:06:34.692Z,15.43
2018-03-25T04:09:02.175Z,14.45
2018-03-25T04:11:29.908Z,14.45
2018-03-25T04:13:57.684Z,13.18
2018-03-25T04:16:25.143Z,15.50
2018-03-25T04:18:52.606Z,14.02
2018-03-25T04:21:20.208Z,15.00
2018-03-25T04:23:47.663Z,14.65
2018-03-25T04:26:15.212Z,14.95
2018-03-25T04:28:42.727Z,14.80
2018-03-25T04:31:10.191Z,15.18
2018-03-25T04:33:37.656Z,14.02
2018-03-25T04:36:05.120Z,15.48
2018-03-25T04:38:32.868Z,16.80
2018-03-25T04:41:00.333Z,15.57
2018-03-25T04:43:27.792Z,16.92
2018-03-25T04:45:55.255Z,16.12
2018-03-25T04:48:22.724Z,15.18
2018-03-25T04:50:50.240Z,14.82
2018-03-25T04:53:17.792Z,16.25
2018-03-25T04:55:45.389Z,16.25
2018-03-25T04:58:12.852Z,15.88
2018-03-25T05:00:40.323Z,15.82
2018-03-25T05:03:07.837Z,15.40
2018-03-25T05:05:35.293Z,16.58
2018-03-25T05:08:02.979Z,15.90
2018-03-25T05:10:30.496Z,15.25
2018-03-25T05:12:58.129Z,14.75
2018-03-25T05:15:25.663Z,14.87
2018-03-25T05:17:53.346Z,14.77
2018-03-25T05:20:20.801Z,16.23
2018-03-25T05:22:48.323Z,14.98
2018-03-25T05:25:16.063Z,15.95
2018-03-25T05:27:43.564Z,14.73
2018-03-25T05:30:11.024Z,16.83
2018-03-25T05:32:38.787Z,15.95
2018-03-25T05:35:06.556Z,16.55
2018-03-25T05:37:34.223Z,15.45
2018-03-25T05:40:01.772Z,14.80
2018-03-25T05:42:29.464Z,16.35
2018-03-25T05:44:57.779Z,16.52
2018-03-25T05:47:25.245Z,16.55
2018-03-25T05:49:52.833Z,15.40
2018-03-25T05:52:20.296Z,15.45
2018-03-25T05:54:48.060Z,17.25
2018-03-25T05:57:15.520Z,16.00
2018-03-25T05:59:43.207Z,15.90
2018-03-25T06:02:10.672Z,14.93
2018-03-25T06:04:38.128Z,15.27
2018-03-25T06:07:05.709Z,15.50
2018-03-25T06:09:33.136Z,15.93
2018-03-25T06:12:00.875Z,14.50
2018-03-25T06:14:28.346Z,16.80
2018-03-25T06:16:56.108Z,15.23
2018-03-25T06:19:23.872Z,14.45
2018-03-25T06:21:51.328Z,15.95
2018-03-25T06:24:19.092Z,18.85
2018-03-25T06:26:46.560Z,17.08
2018-03-25T06:29:14.320Z,17.55
2018-03-25T06:31:42.080Z,15.75
2018-03-25T06:34:09.840Z,16.12
2018-03-25T06:36:37.303Z,16.77
2018-03-25T06:39:04.763Z,16.37
2018-03-25T06:41:32.527Z,15.75
2018-03-25T06:44:00.291Z,16.33
2018-03-25T06:46:28.052Z,15.07
2018-03-25T06:48:55.520Z,17.33
2018-03-25T06:51:22.983Z,15.65
2018-03-25T06:53:51.221Z,16.45
2018-03-25T06:56:18.813Z,16.87
2018-03-25T06:58:46.280Z,17.90
2018-03-25T07:01:13.940Z,18.25
2018-03-25T07:03:41.408Z,16.08
2018-03-25T07:06:08.880Z,16.20
2018-03-25T07:08:36.381Z,16.75
2018-03-25T07:11:03.844Z,17.05
2018-03-25T07:13:31.321Z,17.00
2018-03-25T07:15:58.996Z,16.50
2018-03-25T07:18:26.459Z,17.35
2018-03-25T07:20:54.687Z,17.67
2018-03-25T07:23:22.148Z,15.75
2018-03-25T07:25:49.849Z,16.10
2018-03-25T07:28:17.517Z,15.13
2018-03-25T07:30:45.756Z,15.85
2018-03-25T07:33:13.224Z,17.00
2018-03-25T07:35:40.676Z,14.43
2018-03-25T07:38:08.144Z,14.87
2018-03-25T07:40:35.597Z,15.57
2018-03-25T07:43:03.063Z,16.37
2018-03-25T07:45:30.528Z,16.73
2018-03-25T07:47:58.116Z,14.50
2018-03-25T07:50:25.624Z,14.45
2018-03-25T07:52:53.085Z,15.02
2018-03-25T07:55:20.553Z,17.15
2018-03-25T07:57:48.323Z,15.90
2018-03-25T08:00:15.800Z,14.57
2018-03-25T08:02:43.551Z,15.15
2018-03-25T08:05:11.024Z,16.27
2018-03-25T08:07:38.773Z,16.23
2018-03-25T08:10:06.240Z,17.50
2018-03-25T08:12:33.999Z,14.85
2018-03-25T08:15:01.456Z,15.40
2018-03-25T08:17:29.135Z,14.27
2018-03-25T08:19:56.656Z,14.35
2018-03-25T08:22:24.140Z,13.38
2018-03-25T08:24:51.592Z,12.68
2018-03-25T08:27:19.052Z,15.85
2018-03-25T08:29:46.819Z,14.52
2018-03-25T08:32:14.581Z,15.55
2018-03-25T08:34:42.036Z,14.73
2018-03-25T08:37:09.741Z,15.07
2018-03-25T08:39:37.264Z,16.77
2018-03-25T08:42:04.721Z,15.80
2018-03-25T08:44:32.184Z,17.00
2018-03-25T08:46:59.944Z,15.90
2018-03-25T08:49:27.405Z,13.80
2018-03-25T08:51:54.864Z,16.17
2018-03-25T08:54:22.339Z,15.35
2018-03-25T08:56:49.799Z,16.42
2018-03-25T08:59:17.259Z,16.42
2018-03-25T09:01:44.992Z,15.25
2018-03-25T09:04:12.452Z,15.00
2018-03-25T09:06:39.941Z,14.52
2018-03-25T09:09:07.584Z,13.62
2018-03-25T09:11:35.055Z,13.18
2018-03-25T09:14:02.591Z,14.82
2018-03-25T09:16:30.277Z,14.23
2018-03-25T09:18:57.809Z,13.70
2018-03-25T09:21:25.451Z,14.50
2018-03-25T09:23:53.142Z,13.47
2018-03-25T09:26:20.810Z,13.50
2018-03-25T09:28:48.474Z,15.00
2018-03-25T09:31:15.948Z,14.03
2018-03-25T09:33:43.483Z,15.33
2018-03-25T09:36:12.488Z,16.07
2018-03-25T09:38:39.956Z,15.07
2018-03-25T09:41:07.724Z,14.83
2018-03-25T09:43:35.196Z,14.40
2018-03-25T09:46:02.931Z,16.23
2018-03-25T09:48:30.403Z,15.27
2018-03-25T09:50:58.631Z,14.97
2018-03-25T09:53:26.228Z,13.10
2018-03-25T09:55:53.992Z,15.37
2018-03-25T09:58:21.664Z,14.00
2018-03-25T10:00:49.320Z,12.90
2018-03-25T10:03:36.604Z,13.20
2018-03-25T10:06:04.098Z,13.27
2018-03-25T10:08:31.555Z,12.50
2018-03-25T10:10:59.028Z,11.20
2018-03-25T10:13:26.495Z,11.80
2018-03-25T10:15:54.250Z,11.30
2018-03-25T10:18:21.916Z,12.90
2018-03-25T10:20:49.460Z,12.10
2018-03-25T10:23:17.222Z,10.20
2018-03-25T10:25:44.681Z,12.27
2018-03-25T10:28:12.459Z,10.60
2018-03-25T10:30:39.915Z,10.50
2018-03-25T10:33:07.592Z,11.00
2018-03-25T10:35:35.123Z,11.50
2018-03-25T10:38:02.609Z,11.70
2018-03-25T10:40:30.349Z,13.37
2018-03-25T10:42:57.813Z,12.80
2018-03-25T10:45:25.571Z,11.63
2018-03-25T10:47:53.191Z,12.93
2018-03-25T10:50:20.801Z,11.67
2018-03-25T10:52:48.260Z,11.33
2018-03-25T10:55:16.016Z,12.23
2018-03-25T10:57:43.484Z,10.87
2018-03-25T11:00:11.247Z,10.23
2018-03-25T11:02:39.015Z,11.70
2018-03-25T11:05:06.472Z,10.50
2018-03-25T11:07:34.152Z,11.07
2018-03-25T11:10:01.616Z,12.50
2018-03-25T11:12:29.156Z,9.50
2018-03-25T11:14:56.619Z,10.00
2018-03-25T11:17:24.379Z,9.27
2018-03-25T11:19:52.052Z,8.80
2018-03-25T11:22:19.513Z,9.40
2018-03-25T11:24:47.980Z,11.00
2018-03-25T11:27:15.441Z,12.87
2018-03-25T11:29:43.186Z,13.07
2018-03-25T11:32:10.652Z,12.93
2018-03-25T11:34:38.419Z,12.37
2018-03-25T11:37:05.889Z,12.27
2018-03-25T11:39:33.352Z,12.53
2018-03-25T11:42:01.257Z,13.37
2018-03-25T11:44:28.784Z,12.87
2018-03-25T11:46:56.259Z,14.43
2018-03-25T11:49:23.720Z,11.80
2018-03-25T11:51:51.189Z,12.27
2018-03-25T11:54:18.672Z,13.13
2018-03-25T11:56:46.161Z,13.87
2018-03-25T11:59:13.841Z,14.50
2018-03-25T12:01:41.312Z,15.07
2018-03-25T12:04:08.794Z,13.50
2018-03-25T12:06:36.300Z,13.20
2018-03-25T12:09:05.291Z,12.30
2018-03-25T12:11:34.268Z,15.23
2018-03-25T12:14:02.051Z,13.30
2018-03-25T12:16:31.019Z,14.73
2018-03-25T12:18:58.539Z,13.40
2018-03-25T12:21:26.264Z,12.90
2018-03-25T12:23:53.987Z,13.93
2018-03-25T12:26:21.487Z,14.30
2018-03-25T12:28:48.972Z,12.80
2018-03-25T12:31:16.436Z,14.60
2018-03-25T12:33:44.326Z,16.27
2018-03-25T12:36:11.941Z,14.40
2018-03-25T12:38:39.432Z,14.53
2018-03-25T12:41:06.881Z,14.90
2018-03-25T12:43:34.547Z,14.03
2018-03-25T12:46:02.064Z,15.80
2018-03-25T12:48:29.826Z,15.00
2018-03-25T12:50:57.295Z,14.47
2018-03-25T12:53:26.276Z,16.63
2018-03-25T12:55:53.744Z,15.77
2018-03-25T12:58:22.752Z,17.00
2018-03-25T13:00:50.509Z,16.07
2018-03-25T13:03:19.508Z,15.23
2018-03-25T13:05:48.475Z,15.83
2018-03-25T13:08:15.941Z,16.27
2018-03-25T13:10:43.570Z,16.20
2018-03-25T13:13:11.092Z,15.43
2018-03-25T13:15:38.556Z,16.80
2018-03-25T13:18:06.052Z,14.73
2018-03-25T13:20:33.516Z,16.90
2018-03-25T13:23:01.017Z,14.50
2018-03-25T13:25:29.992Z,16.40
2018-03-25T13:27:57.456Z,17.30
2018-03-25T13:30:24.940Z,16.00
2018-03-25T13:32:52.683Z,15.50
2018-03-25T13:35:20.151Z,15.83
2018-03-25T13:37:49.128Z,17.87
2018-03-25T13:40:16.596Z,16.10
2018-03-25T13:42:45.591Z,16.60
2018-03-25T13:45:14.583Z,16.77
2018-03-25T13:47:42.347Z,18.03
2018-03-25T13:50:09.803Z,16.20
2018-03-25T13:52:37.270Z,17.27
2018-03-25T13:55:06.244Z,17.57
2018-03-25T13:57:33.744Z,16.73
2018-03-25T14:00:01.484Z,17.53
2018-03-25T14:02:30.447Z,16.50
2018-03-25T14:04:57.916Z,17.43
2018-03-25T14:07:25.392Z,17.10
2018-03-25T14:09:53.171Z,16.20
2018-03-25T14:12:22.132Z,19.10
2018-03-25T14:14:49.605Z,18.30
2018-03-25T14:17:17.377Z,18.30
2018-03-25T14:19:44.835Z,17.00
2018-03-25T14:22:14.133Z,17.43
2018-03-25T14:24:41.590Z,15.60
2018-03-25T14:27:09.065Z,17.50
2018-03-25T14:29:36.535Z,16.60
2018-03-25T14:32:04.280Z,16.50
2018-03-25T14:34:31.752Z,18.00
2018-03-25T14:36:59.499Z,17.97
2018-03-25T14:39:27.264Z,18.80
2018-03-25T14:41:54.731Z,18.40
2018-03-25T14:44:22.200Z,17.60
2018-03-25T14:46:50.437Z,18.33
2018-03-25T14:49:18.021Z,17.40
2018-03-25T14:51:45.484Z,17.30
2018-03-25T14:54:12.956Z,17.77
2018-03-25T14:56:40.703Z,17.53
2018-03-25T14:59:08.155Z,17.30
2018-03-25T15:01:35.921Z,17.90
2018-03-25T15:04:03.388Z,17.13
2018-03-25T15:06:30.852Z,16.37
2018-03-25T15:08:58.600Z,18.13
2018-03-25T15:11:26.363Z,16.60
2018-03-25T15:13:54.005Z,17.13
2018-03-25T15:16:21.863Z,16.90
2018-03-25T15:18:49.348Z,17.70
2018-03-25T15:21:17.040Z,17.60
2018-03-25T15:23:44.506Z,17.53
2018-03-25T15:26:11.973Z,18.00
2018-03-25T15:28:39.451Z,17.20
2018-03-25T15:31:06.923Z,16.33
2018-03-25T15:33:34.387Z,16.53
2018-03-25T15:36:01.860Z,18.83
2018-03-25T15:38:30.836Z,18.20
2018-03-25T15:40:58.308Z,16.30
2018-03-25T15:43:25.764Z,16.67
2018-03-25T15:45:53.244Z,15.30
2018-03-25T15:48:20.997Z,16.10
2018-03-25T15:50:48.777Z,16.90
2018-03-25T15:53:16.248Z,15.37
2018-03-25T15:55:43.984Z,15.77
2018-03-25T15:58:11.456Z,16.07
2018-03-25T16:00:39.348Z,16.10
2018-03-25T16:03:06.819Z,15.53
2018-03-25T16:05:34.388Z,15.30
2018-03-25T16:08:01.852Z,16.40
2018-03-25T16:10:29.347Z,17.30
2018-03-25T16:12:56.819Z,14.33
2018-03-25T16:15:24.296Z,15.70
2018-03-25T16:17:51.888Z,15.80
2018-03-25T16:20:19.491Z,15.80
2018-03-25T16:22:46.976Z,16.63
2018-03-25T16:25:14.716Z,15.43
2018-03-25T16:27:42.478Z,14.90
2018-03-25T16:30:09.948Z,16.70
2018-03-25T16:32:37.703Z,16.10
2018-03-25T16:35:05.163Z,14.77
2018-03-25T16:37:32.724Z,16.30
2018-03-25T16:40:00.232Z,15.43
2018-03-25T16:42:27.844Z,15.60
2018-03-25T16:44:55.311Z,15.27
2018-03-25T16:47:22.975Z,16.53
2018-03-25T16:49:50.483Z,15.33
2018-03-25T16:52:17.984Z,15.80
2018-03-25T16:54:45.455Z,13.70
2018-03-25T16:57:13.136Z,14.67
2018-03-25T16:59:40.668Z,15.77
2018-03-25T17:02:08.136Z,17.23
2018-03-25T17:04:35.608Z,17.77
2018-03-25T17:07:03.083Z,14.87
2018-03-25T17:09:30.801Z,14.33
2018-03-25T17:11:58.564Z,15.57
2018-03-25T17:14:26.042Z,14.43
2018-03-25T17:16:53.792Z,14.67
2018-03-25T17:19:21.547Z,14.23
2018-03-25T17:21:49.323Z,15.43
2018-03-25T17:24:17.080Z,15.57
2018-03-25T17:26:44.847Z,14.90
2018-03-25T17:29:12.317Z,15.13
2018-03-25T17:31:39.987Z,14.93
2018-03-25T17:34:07.528Z,14.83
2018-03-25T17:36:34.992Z,15.73
2018-03-25T17:39:02.456Z,14.97
2018-03-25T17:41:29.940Z,14.43
2018-03-25T17:43:57.410Z,14.50
2018-03-25T17:46:25.102Z,15.90
2018-03-25T17:48:52.580Z,14.00
2018-03-25T17:51:20.347Z,15.00
2018-03-25T17:53:47.818Z,17.40
2018-03-25T17:56:15.291Z,14.43
2018-03-25T17:58:42.819Z,17.60
2018-03-25T18:01:10.491Z,16.23
2018-03-25T18:03:38.257Z,14.50
2018-03-25T18:06:05.720Z,17.07
2018-03-25T18:08:33.177Z,15.63
2018-03-25T18:11:00.936Z,15.23
2018-03-25T18:13:28.404Z,15.50
2018-03-25T18:15:56.164Z,17.03
2018-03-25T18:18:24.079Z,17.37
2018-03-25T18:20:56.295Z,17.17
2018-03-25T18:23:19.460Z,14.93
2018-03-25T18:25:47.222Z,15.97
2018-03-25T18:28:14.688Z,14.50
2018-03-25T18:30:42.443Z,18.30
2018-03-25T18:33:09.920Z,17.40
2018-03-25T18:35:37.666Z,16.77
2018-03-25T18:38:05.432Z,16.40
2018-03-25T18:40:33.202Z,15.50
2018-03-25T18:43:00.668Z,16.50
2018-03-25T18:45:28.148Z,15.90
2018-03-25T18:47:55.797Z,16.93
2018-03-25T18:50:23.343Z,16.57
2018-03-25T18:52:51.099Z,15.10
2018-03-25T18:55:18.561Z,16.50
2018-03-25T18:57:46.257Z,17.23
2018-03-25T19:00:13.720Z,14.67
2018-03-25T19:02:41.237Z,16.37
2018-03-25T19:05:08.999Z,15.93
2018-03-25T19:07:36.779Z,17.47
2018-03-25T19:10:04.533Z,16.30
2018-03-25T19:12:32.019Z,16.60
2018-03-25T19:14:59.604Z,15.17
2018-03-25T19:17:27.128Z,18.47
2018-03-25T19:19:54.624Z,15.97
2018-03-25T19:22:22.087Z,16.40
2018-03-25T19:24:49.591Z,17.17
2018-03-25T19:27:17.058Z,15.70
2018-03-25T19:29:44.807Z,17.00
2018-03-25T19:32:12.380Z,17.17
2018-03-25T19:34:39.780Z,17.60
2018-03-25T19:37:07.404Z,16.30
2018-03-25T19:39:34.951Z,16.53
2018-03-25T19:42:02.628Z,15.97
2018-03-25T19:44:30.177Z,17.40
2018-03-25T19:46:57.660Z,18.40
2018-03-25T19:49:25.961Z,17.40
2018-03-25T19:51:53.468Z,17.77
2018-03-25T19:54:21.232Z,18.23
2018-03-25T19:56:49.004Z,17.50
2018-03-25T19:59:16.768Z,17.85
2018-03-25T20:01:44.528Z,16.50
2018-03-25T20:04:12.016Z,17.47
2018-03-25T20:06:39.756Z,19.02
2018-03-25T20:09:07.518Z,17.00
2018-03-25T20:11:35.013Z,17.53
2018-03-25T20:14:02.735Z,16.85
2018-03-25T20:16:30.365Z,17.73
2018-03-25T20:18:58.004Z,17.20
2018-03-25T20:21:25.728Z,16.23
2018-03-25T20:23:53.192Z,18.00
2018-03-25T20:26:20.952Z,17.48
2018-03-25T20:28:48.475Z,17.47
2018-03-25T20:31:15.952Z,17.73
2018-03-25T20:33:43.637Z,17.57
2018-03-25T20:36:11.312Z,18.25
2018-03-25T20:38:38.871Z,15.52
2018-03-25T20:41:06.357Z,18.70
2018-03-25T20:43:34.076Z,16.70
2018-03-25T20:46:01.839Z,15.98
2018-03-25T20:48:29.608Z,16.65
2018-03-25T20:50:57.373Z,15.77
2018-03-25T20:53:24.844Z,16.73
2018-03-25T20:55:52.512Z,17.30
2018-03-25T20:58:19.979Z,17.75
2018-03-25T21:00:47.454Z,17.80
2018-03-25T21:03:14.971Z,16.85
2018-03-25T21:05:42.433Z,17.30
2018-03-25T21:08:10.115Z,15.80
2018-03-25T21:10:37.648Z,16.45
2018-03-25T21:13:05.381Z,17.87
2018-03-25T21:15:32.859Z,18.52
2018-03-25T21:18:00.643Z,17.17
2018-03-25T21:20:28.185Z,16.65
2018-03-25T21:22:55.780Z,18.55
2018-03-25T21:25:23.248Z,17.90
2018-03-25T21:27:50.739Z,16.00
2018-03-25T21:30:18.207Z,18.08
2018-03-25T21:32:45.694Z,15.70
2018-03-25T21:35:13.183Z,17.67
2018-03-25T21:37:40.832Z,16.35
2018-03-25T21:40:08.296Z,15.52
2018-03-25T21:42:35.771Z,17.15
2018-03-25T21:45:03.257Z,17.40
2018-03-25T21:47:30.756Z,17.17
2018-03-25T21:49:58.512Z,15.18
2018-03-25T21:52:25.983Z,16.48
2018-03-25T21:54:53.664Z,18.10
2018-03-25T21:57:21.204Z,17.12
2018-03-25T21:59:48.887Z,17.52
2018-03-25T22:02:16.353Z,18.23
2018-03-25T22:04:43.822Z,17.50
2018-03-25T22:07:11.291Z,19.65
2018-03-25T22:09:38.764Z,19.70
2018-03-25T22:12:06.557Z,19.98
2018-03-25T22:14:34.019Z,18.23
2018-03-25T22:17:01.736Z,19.62
2018-03-25T22:19:29.244Z,17.87
2018-03-25T22:21:57.000Z,18.77
2018-03-25T22:24:24.744Z,19.85
2018-03-25T22:26:52.366Z,19.62
2018-03-25T22:29:19.838Z,22.23
2018-03-25T22:31:47.456Z,21.95
2018-03-25T22:34:15.216Z,22.15
2018-03-25T22:36:42.994Z,22.70
2018-03-25T22:39:10.456Z,23.45
2018-03-25T22:41:38.204Z,25.88
2018-03-25T22:44:05.967Z,24.20
2018-03-25T22:46:33.456Z,26.25
2018-03-25T22:49:01.211Z,26.55
2018-03-25T22:51:28.955Z,24.70
2018-03-25T22:53:56.429Z,25.10
2018-03-25T22:56:24.164Z,26.73
2018-03-25T22:58:51.635Z,24.27
2018-03-25T23:01:19.104Z,28.23
2018-03-25T23:03:47.339Z,29.45
2018-03-25T23:06:14.803Z,30.17
2018-03-25T23:08:42.392Z,26.35
2018-03-25T23:11:10.157Z,28.62
2018-03-25T23:13:37.930Z,29.63
2018-03-25T23:16:05.492Z,28.83
2018-03-25T23:18:33.724Z,28.10
2018-03-25T23:21:01.218Z,29.65
2018-03-25T23:23:28.685Z,26.30
2018-03-25T23:25:56.420Z,29.58
2018-03-25T23:28:23.900Z,25.85
2018-03-25T23:30:51.580Z,28.70
2018-03-25T23:33:19.124Z,27.95
2018-03-25T23:35:46.888Z,27.27
2018-03-25T23:38:14.652Z,28.87
2018-03-25T23:40:42.461Z,27.25
2018-03-25T23:43:10.186Z,29.95
2018-03-25T23:45:37.876Z,30.60
2018-03-25T23:48:05.407Z,30.58
2018-03-25T23:50:32.888Z,32.60
2018-03-25T23:53:00.625Z,30.05
2018-03-25T23:55:28.095Z,31.67
2018-03-25T23:57:55.850Z,31.50
